Latest Coastal Weather Observations for Albany Airport

IDW60701

Issued at 11:12 am WST Saturday 6 February 2016 (issued every 10 minutes, with the page automatically refreshed every 10 minutes)

About coastal observations | Map of coastal stations | Coastal observations for WA | Marine services | Other Formats
Station Details ID: 009999 Name: ALBANY AIRPORT Lat: -34.94 Lon: 117.82 Height: 68.4 m
Data from the previous 72 hours. | See also: Recent months at Albany Airport
Date/Time
WST
Temp

°C
Wind Pressure Rain
since 9am
mm
Weather Cloud Vis
km
Sea
Height
m
Swell
Dir
 
Speed
knots
Gust
knots
hPa Trend Height
m
Period
s
Dir
06/11:00am 20.3 SSE 9 13 1019.6 - 0.0 - Partly cloudy 10 - - - -
06/10:30am 20.2 S 9 13 1019.6 - 0.0 - Partly cloudy 10 - - - -
06/10:00am 20.5 S 8 12 1019.5 - 0.0 - Partly cloudy 10 - - - -
06/09:30am 20.3 SE 7 10 1019.4 - 0.0 - Partly cloudy 10 - - - -
06/09:00am 19.6 SSE 8 10 1019.0 R 0.0 Fine Mostly cloudy 30 - - - -
06/08:30am 19.6 S 6 8 1018.9 - 0.0 - Partly cloudy 10 - - - -
06/08:00am 18.7 SE 7 9 1018.9 - 0.0 - Partly cloudy 10 - - - -
06/07:30am 17.9 SSE 4 6 1018.7 - 0.0 - Mostly cloudy 10 - - - -
06/07:00am 17.6 SSE 3 5 1018.6 - 0.0 - Partly cloudy 10 - - - -
06/06:30am 15.9 S 4 5 1018.5 - 0.0 - Partly cloudy 10 - - - -
06/06:00am 14.3 SSW 5 5 1018.1 S 0.0 Shallow fog Mostly clear 15 - - - -
06/05:30am 13.3 S 1 4 1017.9 - 0.0 - - 2 - - - -
06/05:00am 14.3 CALM 0 0 1017.2 - 0.0 - - 8 - - - -
06/04:30am 14.4 CALM 0 0 1017.1 - 0.0 - - 2 - - - -
06/04:19am 14.7 CALM 0 0 1017.0 - 0.0 - Partly cloudy 6 - - - -
06/04:00am 15.2 CALM 0 0 1017.1 - 0.0 - Partly cloudy 10 - - - -
06/03:30am 16.0 S 3 3 1017.2 - 0.0 - Cloudy 10 - - - -
06/03:00am 15.7 S 4 5 1017.3 - 0.0 - Mostly cloudy 10 - - - -
06/02:30am 15.0 SSW 5 6 1017.6 - 0.0 - Partly cloudy 8 - - - -
06/02:00am 15.1 SW 3 4 1017.4 - 0.0 - - 10 - - - -
06/01:33am 15.1 SW 2 5 1017.5 - 0.0 - - 10 - - - -
06/01:30am 15.2 SW 1 4 1017.4 - 0.0 - - 10 - - - -
06/01:11am 15.1 CALM 0 0 1017.3 - 0.0 - - 5 - - - -
06/01:00am 15.6 SW 3 4 1017.3 - 0.0 - - 9 - - - -
06/12:30am 16.0 SSW 3 4 1017.3 - 0.0 - - 8 - - - -
06/12:17am 16.2 SSW 4 5 1017.3 - 0.0 - Partly cloudy 8 - - - -
06/12:00am 16.1 SSW 4 5 1017.2 - 0.0 - Partly cloudy 9 - - - -
 
Date/Time
WST
Temp

°C
Wind Pressure Rain
since 9am
mm
Weather Cloud Vis
km
Sea
Height
m
Swell
Dir
 
Speed
knots
Gust
knots
hPa Trend Height
m
Period
s
Dir
05/11:46pm 16.0 SSW 4 5 1017.2 - 0.0 - Partly cloudy 9 - - - -
05/11:30pm 15.6 SW 5 6 1017.2 - 0.0 - - 8 - - - -
05/11:00pm 15.6 CALM 0 0 1017.2 - 0.0 - - 10 - - - -
05/10:30pm 17.1 SW 3 4 1017.2 - 0.0 - - 10 - - - -
05/10:00pm 16.8 SSW 5 6 1017.7 - 0.0 - - 10 - - - -
05/09:30pm 17.0 SSW 4 5 1017.7 - 0.0 - - 10 - - - -
05/09:00pm 17.2 SSW 5 6 1017.4 - 0.0 - - 10 - - - -
05/08:30pm 17.1 SSW 4 7 1017.0 - 0.0 - - 10 - - - -
05/08:00pm 18.4 S 3 4 1016.5 - 0.0 - - 10 - - - -
05/07:30pm 19.1 SSW 7 8 1016.5 - 0.0 - - 10 - - - -
05/07:00pm 20.5 S 6 8 1016.2 - 0.0 - - 10 - - - -
05/06:30pm 21.6 S 7 11 1015.9 - 0.0 - - 10 - - - -
05/06:00pm 22.5 S 8 11 1015.4 - 0.0 - - 10 - - - -
05/05:30pm 23.3 SSW 9 11 1015.3 - 0.0 - - 10 - - - -
05/05:00pm 23.6 SSW 8 12 1015.1 - 0.0 - - 10 - - - -
05/04:30pm 23.8 SSW 12 15 1015.1 - 0.0 - - 10 - - - -
05/04:00pm 24.4 S 10 13 1015.1 - 0.0 - - 10 - - - -
05/03:30pm 25.4 S 12 17 1015.0 - 0.0 - - 10 - - - -
05/03:00pm 26.2 SSW 11 16 1014.7 R 0.0 Fine Clear 40 - - - -
05/02:30pm 27.0 SSW 14 19 1014.4 - 0.0 - - 10 - - - -
05/02:00pm 27.2 SSW 15 18 1014.5 - 0.0 - - 10 - - - -
05/01:30pm 29.4 SSW 12 16 1014.3 - 0.0 - - 10 - - - -
05/01:00pm 28.9 SSW 13 19 1014.5 - 0.0 - - 10 - - - -
05/12:30pm 27.5 SSW 17 23 1014.7 - 0.0 - - 10 - - - -
05/12:00pm 28.0 SSW 16 21 1014.4 F 0.0 Fine Clear 40 - - - -
05/11:30am 33.1 NW 9 17 1014.4 - 0.0 - - 10 - - - -
05/11:00am 32.5 N 10 13 1014.6 - 0.0 - - 10 - - - -
05/10:30am 31.7 NW 12 16 1014.8 - 0.0 - - 10 - - - -
05/10:00am 30.6 NNW 11 15 1015.1 - 0.0 - - 10 - - - -
05/09:30am 29.3 N 12 16 1015.3 - 0.0 - - 10 - - - -
05/09:00am 27.7 NNW 9 14 1015.5 F 0.2 Fine Clear 40 - - - -
05/08:30am 25.1 N 9 11 1015.7 - 0.2 - - 10 - - - -
05/08:00am 23.5 N 6 8 1016.2 - 0.2 - - 10 - - - -
05/07:30am 18.4 CALM 0 0 1016.2 - 0.2 - - 10 - - - -
05/07:00am 16.7 NNE 3 4 1015.9 - 0.2 - - 10 - - - -
05/06:30am 15.2 NE 3 4 1015.8 - 0.2 - - 10 - - - -
05/06:00am 13.2 NE 4 5 1015.7 F 0.2 Fine Clear 40 - - - -
05/05:30am 13.4 NE 5 6 1015.7 - 0.2 - - 10 - - - -
05/05:00am 13.6 ENE 4 5 1015.7 - 0.2 - - 10 - - - -
05/04:30am 14.3 ENE 5 6 1015.4 - 0.2 - - 10 - - - -
05/04:00am 14.8 ENE 7 8 1015.3 - 0.2 - - 10 - - - -
05/03:30am 15.2 ENE 8 9 1015.5 - 0.2 - - 10 - - - -
05/03:00am 15.8 ENE 8 12 1015.6 - 0.2 - - 10 - - - -
05/02:30am 16.0 ENE 9 14 1016.0 - 0.2 - - 10 - - - -
05/02:00am 16.1 NE 9 14 1016.4 - 0.2 - - 10 - - - -
05/01:30am 16.1 NE 9 11 1016.7 - 0.2 - - 10 - - - -
05/01:00am 15.9 NE 9 13 1017.0 - 0.2 - - 10 - - - -
05/12:30am 16.2 ENE 10 11 1017.4 - 0.2 - - 10 - - - -
05/12:00am 16.3 ENE 9 13 1017.6 - 0.2 - - 10 - - - -
 
Date/Time
WST
Temp

°C
Wind Pressure Rain
since 9am
mm
Weather Cloud Vis
km
Sea
Height
m
Swell
Dir
 
Speed
knots
Gust
knots
hPa Trend Height
m
Period
s
Dir
04/11:30pm 16.7 NE 11 15 1017.9 - 0.2 - - 10 - - - -
04/11:00pm 16.8 NE 9 11 1018.1 - 0.2 - - 10 - - - -
04/10:30pm 17.0 ENE 10 13 1018.3 - 0.2 - - 10 - - - -
04/10:00pm 17.2 ENE 9 11 1018.6 - 0.2 - - 10 - - - -
04/09:30pm 17.3 ENE 9 12 1018.7 - 0.2 - - 10 - - - -
04/09:00pm 17.4 E 9 13 1018.9 - 0.2 - - 10 - - - -
04/08:30pm 17.8 ENE 10 14 1019.0 - 0.2 - - 10 - - - -
04/08:00pm 18.1 E 8 10 1018.8 - 0.2 - - 10 - - - -
04/07:30pm 19.0 E 10 13 1018.9 - 0.2 - - 10 - - - -
04/07:00pm 20.3 E 12 15 1018.9 - 0.2 - - 10 - - - -
04/06:30pm 21.6 E 10 14 1018.7 - 0.2 - - 10 - - - -
04/06:00pm 22.8 E 11 15 1018.4 - 0.2 - - 10 - - - -
04/05:30pm 23.3 ESE 13 16 1018.3 - 0.2 - - 10 - - - -
04/05:00pm 24.0 ESE 12 16 1018.3 - 0.2 - - 10 - - - -
04/04:30pm 24.4 ESE 13 18 1018.3 - 0.2 - - 10 - - - -
04/04:00pm 24.3 ESE 14 18 1018.2 - 0.2 - - 10 - - - -
04/03:30pm 25.2 ESE 15 19 1018.3 - 0.2 - - 10 - - - -
04/03:00pm 26.1 E 15 18 1018.0 F 0.0 Fine Clear 40 - - - -
04/02:30pm 25.9 ESE 15 18 1018.3 - 0.0 - - 10 - - - -
04/02:00pm 26.5 ESE 13 16 1018.6 - 0.0 - - 10 - - - -
04/01:30pm 26.4 ESE 13 17 1019.0 - 0.0 - - 10 - - - -
04/01:00pm 26.9 SSE 4 11 1019.4 - 0.0 - - 10 - - - -
04/12:30pm 25.5 ENE 6 10 1019.8 - 0.0 - - 10 - - - -
04/12:00pm 26.0 NE 6 11 1020.2 - 0.0 - - 10 - - - -
04/11:30am 25.3 ENE 7 13 1020.7 - 0.0 - - 10 - - - -
04/11:00am 24.5 NE 9 14 1021.3 - 0.0 - - 10 - - - -
04/10:30am 23.2 ENE 9 14 1021.7 - 0.0 - Mostly clear 10 - - - -
04/10:00am 22.7 ENE 9 16 1022.1 - 0.0 - Mostly clear 10 - - - -
04/09:30am 21.8 ENE 11 15 1022.3 - 0.0 - Mostly clear 10 - - - -
04/09:00am 20.9 ENE 13 17 1022.6 F 0.2 Fine Mostly clear 40 - - - -
04/08:30am 19.4 ENE 13 19 1022.9 - 0.2 - Mostly clear 10 - - - -
04/08:00am 18.5 ENE 12 16 1023.0 - 0.2 - Mostly clear 10 - - - -
04/07:30am 17.1 NE 10 14 1023.1 - 0.2 - Mostly clear 10 - - - -
04/07:00am 15.5 NE 9 13 1023.0 - 0.2 - Mostly clear 10 - - - -
04/06:30am 14.2 NE 9 11 1022.9 - 0.2 - Mostly clear 10 - - - -
04/06:00am 12.7 NE 7 8 1022.8 F 0.2 Fine Mostly clear 35 - - - -
04/05:30am 11.9 ENE 6 8 1023.0 - 0.2 - - 10 - - - -
04/05:00am 11.8 ENE 5 6 1022.7 - 0.2 - - 10 - - - -
04/04:30am 12.0 ENE 6 7 1022.6 - 0.2 - - 10 - - - -
04/04:00am 11.9 ENE 5 7 1022.5 - 0.2 - - 10 - - - -
04/03:30am 12.2 ENE 6 7 1022.3 - 0.2 - - 10 - - - -
04/03:00am 12.1 ENE 6 7 1022.2 - 0.2 - - 10 - - - -
04/02:30am 12.1 ENE 6 7 1022.3 - 0.2 - - 10 - - - -
04/02:00am 11.9 ENE 6 7 1022.3 - 0.2 - - 10 - - - -
04/01:30am 12.2 ENE 5 6 1022.6 - 0.2 - - 10 - - - -
04/01:00am 12.2 ENE 5 6 1022.8 - 0.2 - - 10 - - - -
04/12:30am 12.7 E 4 6 1022.9 - 0.2 - - 10 - - - -
04/12:00am 12.6 ENE 6 6 1022.9 - 0.2 - - 10 - - - -
 
Date/Time
WST
Temp

°C
Wind Pressure Rain
since 9am
mm
Weather Cloud Vis
km
Sea
Height
m
Swell
Dir
 
Speed
knots
Gust
knots
hPa Trend Height
m
Period
s
Dir
03/11:30pm 13.5 E 5 6 1023.3 - 0.2 - - 10 - - - -
03/11:00pm 13.5 ENE 6 7 1023.3 - 0.2 - Partly cloudy 10 - - - -
03/10:30pm 14.2 E 7 9 1023.5 - 0.2 - - 10 - - - -
03/10:00pm 13.5 ENE 6 7 1023.7 - 0.2 - Partly cloudy 10 - - - -
03/09:30pm 14.5 E 7 9 1023.7 - 0.2 - Partly cloudy 10 - - - -
03/09:00pm 15.5 E 7 10 1023.5 - 0.2 - - 10 - - - -
03/08:30pm 15.6 E 7 10 1023.5 - 0.2 - - 10 - - - -
03/08:00pm 16.1 E 10 14 1023.5 - 0.2 - - 10 - - - -
03/07:30pm 16.6 E 10 13 1023.3 - 0.2 - - 10 - - - -
03/07:00pm 17.3 E 11 15 1023.1 - 0.2 - - 10 - - - -
03/06:30pm 18.3 E 12 16 1022.7 - 0.2 - - 10 - - - -
03/06:00pm 18.8 ESE 13 17 1022.4 - 0.2 - - 10 - - - -
03/05:30pm 19.6 ESE 13 18 1022.4 - 0.2 - - 10 - - - -
03/05:00pm 19.7 ESE 15 19 1022.3 - 0.2 - - 10 - - - -
03/04:30pm 19.9 SE 14 19 1022.2 - 0.2 - - 10 - - - -
03/04:00pm 20.1 SE 14 19 1022.2 - 0.2 - Mostly clear 10 - - - -
03/03:30pm 20.3 SE 13 19 1022.1 - 0.2 - - 10 - - - -
03/03:00pm 20.3 SE 15 20 1021.8 R 0.2 Fine Mostly cloudy 30 - - - -
03/02:30pm 20.5 SE 14 18 1022.0 - 0.2 - - 10 - - - -
03/02:00pm 20.9 SE 13 18 1021.9 - 0.2 - - 10 - - - -
03/01:30pm 21.2 ESE 13 19 1021.7 - 0.2 - Mostly clear 10 - - - -
03/01:00pm 22.2 ESE 12 16 1022.0 - 0.2 - Mostly clear 10 - - - -
03/12:30pm 21.6 ESE 10 16 1022.6 - 0.2 - Mostly clear 10 - - - -
03/12:00pm 21.7 E 8 14 1022.9 F 0.2 Fine Mostly clear 30 - - - -
03/11:30am 21.1 E 6 11 1023.3 - 0.2 - Mostly clear 10 - - - -

Other Formats:

Comma delimited format used in spreadsheet applications
http://www.bom.gov.au/fwo/IDW60701/IDW60701.94802.axf

JavaScript Object Notation format (JSON) in row-major order
http://www.bom.gov.au/fwo/IDW60701/IDW60701.94802.json